Joyceton, North Carolina
Current Conditions -  °F | °C
As of 1:55 AM on Monday 24 Nov 2014 (Local Time) from KMRN Reporting Station
Overcast Overcast  
Wind Chill: 49°   Ceiling: 800
Heat Index: 49°   Visibility: 7mi
Dew Point: 49°   Wind: 0mph
Humidity: 100%   Direction: NA
Pressure: 29.75"   Gusts: NA
Location:  35.9726°N, 81.5331°W
Report Text: KMRN 240655Z AUTO 00000KT 7SM BKN008 OVC012 10/10 A2975 RMK AO2 T00970097
Loading
Personal Weather Stations






























Interactive Weather Map New forecast layout! Learn more

10-Day Weather Forecast

Advertisements
Track Severe Weather on mobile